sensor_id;sensor_type;location;lat;lon;timestamp;pressure;altitude;pressure_sealevel;temperature;humidity
10176;BME280;18221;38.704;0.152;2023-03-22T00:03:24;99020.16;;;17.74;51.73
10176;BME280;18221;38.704;0.152;2023-03-22T00:05:57;99013.22;;;17.65;52.06
10176;BME280;18221;38.704;0.152;2023-03-22T00:08:25;99014.00;;;17.51;52.61
10176;BME280;18221;38.704;0.152;2023-03-22T00:10:53;99005.59;;;17.54;52.83
10176;BME280;18221;38.704;0.152;2023-03-22T00:13:22;98996.50;;;17.55;52.94
10176;BME280;18221;38.704;0.152;2023-03-22T00:15:50;98995.69;;;17.54;52.99
10176;BME280;18221;38.704;0.152;2023-03-22T00:18:18;98994.50;;;17.57;53.03
10176;BME280;18221;38.704;0.152;2023-03-22T00:20:53;99000.88;;;17.56;53.13
10176;BME280;18221;38.704;0.152;2023-03-22T00:23:22;99004.25;;;17.50;53.13
10176;BME280;18221;38.704;0.152;2023-03-22T00:25:51;98995.56;;;17.48;52.93
10176;BME280;18221;38.704;0.152;2023-03-22T00:28:19;98986.38;;;17.42;53.70
10176;BME280;18221;38.704;0.152;2023-03-22T00:30:53;98986.88;;;17.46;53.77
10176;BME280;18221;38.704;0.152;2023-03-22T00:33:23;98988.22;;;17.42;53.98
10176;BME280;18221;38.704;0.152;2023-03-22T00:35:57;98994.06;;;17.31;54.22
10176;BME280;18221;38.704;0.152;2023-03-22T00:38:25;98975.00;;;17.40;54.37
10176;BME280;18221;38.704;0.152;2023-03-22T00:41:08;98966.22;;;17.46;54.17
10176;BME280;18221;38.704;0.152;2023-03-22T00:43:37;98963.19;;;17.49;53.99
10176;BME280;18221;38.704;0.152;2023-03-22T00:46:07;98973.81;;;17.43;53.83
10176;BME280;18221;38.704;0.152;2023-03-22T00:48:35;98970.38;;;17.49;53.87
10176;BME280;18221;38.704;0.152;2023-03-22T00:51:07;98966.13;;;17.40;53.96
10176;BME280;18221;38.704;0.152;2023-03-22T00:53:35;98973.03;;;17.34;54.39
10176;BME280;18221;38.704;0.152;2023-03-22T00:56:06;98970.47;;;17.41;54.54
10176;BME280;18221;38.704;0.152;2023-03-22T00:58:34;98970.28;;;17.42;54.52
10176;BME280;18221;38.704;0.152;2023-03-22T01:01:03;98965.03;;;17.49;54.18
10176;BME280;18221;38.704;0.152;2023-03-22T01:03:32;98962.13;;;17.36;54.21
10176;BME280;18221;38.704;0.152;2023-03-22T01:06:01;98965.94;;;17.41;54.31
10176;BME280;18221;38.704;0.152;2023-03-22T01:08:31;98959.00;;;17.47;54.38
10176;BME280;18221;38.704;0.152;2023-03-22T01:11:00;98960.28;;;17.51;54.15
10176;BME280;18221;38.704;0.152;2023-03-22T01:13:28;98964.66;;;17.52;54.20
10176;BME280;18221;38.704;0.152;2023-03-22T01:15:57;98958.81;;;17.48;54.09
10176;BME280;18221;38.704;0.152;2023-03-22T01:18:25;98956.31;;;17.47;54.08
10176;BME280;18221;38.704;0.152;2023-03-22T01:20:54;98949.75;;;17.49;53.59
10176;BME280;18221;38.704;0.152;2023-03-22T01:23:23;98949.56;;;17.51;53.79
10176;BME280;18221;38.704;0.152;2023-03-22T01:25:53;98941.50;;;17.51;53.55
10176;BME280;18221;38.704;0.152;2023-03-22T01:28:21;98940.59;;;17.44;53.58
10176;BME280;18221;38.704;0.152;2023-03-22T01:30:50;98943.28;;;17.44;53.79
10176;BME280;18221;38.704;0.152;2023-03-22T01:33:18;98944.56;;;17.33;53.83
10176;BME280;18221;38.704;0.152;2023-03-22T01:35:47;98939.00;;;17.35;53.68
10176;BME280;18221;38.704;0.152;2023-03-22T01:38:16;98935.75;;;17.39;53.70
10176;BME280;18221;38.704;0.152;2023-03-22T01:40:44;98928.09;;;17.36;53.66
10176;BME280;18221;38.704;0.152;2023-03-22T01:43:16;98920.56;;;17.32;53.73
10176;BME280;18221;38.704;0.152;2023-03-22T01:45:47;98912.78;;;17.37;53.81
10176;BME280;18221;38.704;0.152;2023-03-22T01:48:24;98920.31;;;17.41;53.44
10176;BME280;18221;38.704;0.152;2023-03-22T01:51:03;98907.53;;;17.43;53.24
10176;BME280;18221;38.704;0.152;2023-03-22T01:53:37;98910.84;;;17.45;53.25
10176;BME280;18221;38.704;0.152;2023-03-22T01:56:08;98913.06;;;17.42;53.23
10176;BME280;18221;38.704;0.152;2023-03-22T01:58:39;98914.47;;;17.38;53.50
10176;BME280;18221;38.704;0.152;2023-03-22T02:01:10;98916.16;;;17.39;53.25
10176;BME280;18221;38.704;0.152;2023-03-22T02:03:48;98904.38;;;17.40;53.20
10176;BME280;18221;38.704;0.152;2023-03-22T02:06:19;98907.81;;;17.34;53.20
10176;BME280;18221;38.704;0.152;2023-03-22T02:08:49;98907.97;;;17.32;53.44
10176;BME280;18221;38.704;0.152;2023-03-22T02:11:29;98904.47;;;17.32;53.08
10176;BME280;18221;38.704;0.152;2023-03-22T02:14:39;98895.41;;;17.33;53.33
10176;BME280;18221;38.704;0.152;2023-03-22T02:17:25;98890.03;;;17.33;53.08
10176;BME280;18221;38.704;0.152;2023-03-22T02:20:50;98896.13;;;17.26;53.13
10176;BME280;18221;38.704;0.152;2023-03-22T02:27:38;98886.59;;;17.24;53.18
10176;BME280;18221;38.704;0.152;2023-03-22T02:30:51;98882.28;;;17.23;52.88
10176;BME280;18221;38.704;0.152;2023-03-22T02:33:57;98886.16;;;17.20;52.83
10176;BME280;18221;38.704;0.152;2023-03-22T02:36:48;98883.56;;;17.12;52.99
10176;BME280;18221;38.704;0.152;2023-03-22T02:39:34;98880.22;;;17.10;53.05
10176;BME280;18221;38.704;0.152;2023-03-22T02:42:23;98880.22;;;17.10;53.08
10176;BME280;18221;38.704;0.152;2023-03-22T02:45:02;98883.38;;;17.14;53.07
10176;BME280;18221;38.704;0.152;2023-03-22T02:47:40;98878.19;;;17.12;52.77
10176;BME280;18221;38.704;0.152;2023-03-22T02:50:18;98883.72;;;17.11;52.84
10176;BME280;18221;38.704;0.152;2023-03-22T02:52:55;98883.56;;;17.12;52.48
10176;BME280;18221;38.704;0.152;2023-03-22T02:55:33;98886.41;;;17.11;52.36
10176;BME280;18221;38.704;0.152;2023-03-22T02:58:10;98881.97;;;17.03;52.59
10176;BME280;18221;38.704;0.152;2023-03-22T03:00:42;98878.28;;;17.04;52.42
10176;BME280;18221;38.704;0.152;2023-03-22T03:03:15;98871.59;;;17.00;52.47
10176;BME280;18221;38.704;0.152;2023-03-22T03:05:49;98876.53;;;16.97;52.59
10176;BME280;18221;38.704;0.152;2023-03-22T03:08:21;98873.34;;;16.93;52.68
10176;BME280;18221;38.704;0.152;2023-03-22T03:10:53;98883.16;;;16.86;52.58
10176;BME280;18221;38.704;0.152;2023-03-22T03:13:21;98880.16;;;16.66;53.03
10176;BME280;18221;38.704;0.152;2023-03-22T03:15:54;98873.41;;;16.71;53.19
10176;BME280;18221;38.704;0.152;2023-03-22T03:18:38;98873.16;;;16.80;53.06
10176;BME280;18221;38.704;0.152;2023-03-22T03:21:25;98871.75;;;16.84;53.05
10176;BME280;18221;38.704;0.152;2023-03-22T03:24:13;98867.44;;;16.83;52.69
10176;BME280;18221;38.704;0.152;2023-03-22T03:26:55;98869.47;;;16.81;52.73
10176;BME280;18221;38.704;0.152;2023-03-22T03:29:37;98872.50;;;16.78;52.73
10176;BME280;18221;38.704;0.152;2023-03-22T03:32:14;98874.25;;;16.71;52.99
10176;BME280;18221;38.704;0.152;2023-03-22T03:34:48;98872.38;;;16.72;52.77
10176;BME280;18221;38.704;0.152;2023-03-22T03:37:22;98869.25;;;16.68;52.92
10176;BME280;18221;38.704;0.152;2023-03-22T03:39:57;98869.25;;;16.68;52.81
10176;BME280;18221;38.704;0.152;2023-03-22T03:42:29;98866.75;;;16.66;53.10
10176;BME280;18221;38.704;0.152;2023-03-22T03:45:00;98863.53;;;16.71;52.96
10176;BME280;18221;38.704;0.152;2023-03-22T03:47:29;98865.81;;;16.74;52.70
10176;BME280;18221;38.704;0.152;2023-03-22T03:49:58;98865.19;;;16.72;53.10
10176;BME280;18221;38.704;0.152;2023-03-22T03:52:26;98865.19;;;16.72;53.05
10176;BME280;18221;38.704;0.152;2023-03-22T03:54:55;98865.81;;;16.74;53.13
10176;BME280;18221;38.704;0.152;2023-03-22T03:57:23;98866.50;;;16.76;53.11
10176;BME280;18221;38.704;0.152;2023-03-22T03:59:54;98867.50;;;16.75;52.96
10176;BME280;18221;38.704;0.152;2023-03-22T04:02:22;98861.94;;;16.77;52.69
10176;BME280;18221;38.704;0.152;2023-03-22T04:04:50;98855.50;;;16.71;53.01
10176;BME280;18221;38.704;0.152;2023-03-22T04:07:19;98862.69;;;16.71;53.14
10176;BME280;18221;38.704;0.152;2023-03-22T04:09:47;98866.50;;;16.76;53.19
10176;BME280;18221;38.704;0.152;2023-03-22T04:12:16;98875.75;;;16.74;53.41
10176;BME280;18221;38.704;0.152;2023-03-22T04:14:44;98873.22;;;16.72;53.18
10176;BME280;18221;38.704;0.152;2023-03-22T04:17:13;98866.50;;;16.76;53.33
10176;BME280;18221;38.704;0.152;2023-03-22T04:19:42;98874.72;;;16.75;53.11
10176;BME280;18221;38.704;0.152;2023-03-22T04:22:11;98877.22;;;16.76;53.09
10176;BME280;18221;38.704;0.152;2023-03-22T04:24:40;98887.28;;;16.74;53.27
10176;BME280;18221;38.704;0.152;2023-03-22T04:27:08;98886.47;;;16.74;53.24
10176;BME280;18221;38.704;0.152;2023-03-22T04:29:37;98884.16;;;16.71;53.42
10176;BME280;18221;38.704;0.152;2023-03-22T04:32:05;98881.63;;;16.69;53.14
10176;BME280;18221;38.704;0.152;2023-03-22T04:34:35;98881.63;;;16.69;53.08
10176;BME280;18221;38.704;0.152;2023-03-22T04:37:04;98877.94;;;16.70;53.25
10176;BME280;18221;38.704;0.152;2023-03-22T04:39:33;98883.66;;;16.67;53.23
10176;BME280;18221;38.704;0.152;2023-03-22T04:42:01;98883.84;;;16.65;53.37
10176;BME280;18221;38.704;0.152;2023-03-22T04:44:29;98884.38;;;16.61;53.27
10176;BME280;18221;38.704;0.152;2023-03-22T04:46:58;98881.06;;;16.59;53.48
10176;BME280;18221;38.704;0.152;2023-03-22T04:49:26;98877.72;;;16.57;53.52
10176;BME280;18221;38.704;0.152;2023-03-22T04:51:56;98873.72;;;16.53;53.44
10176;BME280;18221;38.704;0.152;2023-03-22T04:54:25;98874.72;;;16.52;53.54
10176;BME280;18221;38.704;0.152;2023-03-22T04:56:53;98866.19;;;16.48;53.88
10176;BME280;18221;38.704;0.152;2023-03-22T04:59:22;98872.59;;;16.47;53.99
10176;BME280;18221;38.704;0.152;2023-03-22T05:01:50;98863.88;;;16.45;54.03
10176;BME280;18221;38.704;0.152;2023-03-22T05:04:19;98862.69;;;16.48;53.99
10176;BME280;18221;38.704;0.152;2023-03-22T05:06:48;98862.84;;;16.54;53.92
10176;BME280;18221;38.704;0.152;2023-03-22T05:09:18;98873.28;;;16.64;53.82
10176;BME280;18221;38.704;0.152;2023-03-22T05:11:47;98870.31;;;16.59;53.88
10176;BME280;18221;38.704;0.152;2023-03-22T05:14:15;98872.00;;;16.60;53.73
10176;BME280;18221;38.704;0.152;2023-03-22T05:16:43;98870.97;;;16.61;53.76
10176;BME280;18221;38.704;0.152;2023-03-22T05:19:11;98873.94;;;16.66;53.82
10176;BME280;18221;38.704;0.152;2023-03-22T05:21:41;98872.47;;;16.63;54.18
10176;BME280;18221;38.704;0.152;2023-03-22T05:24:10;98874.97;;;16.65;54.01
10176;BME280;18221;38.704;0.152;2023-03-22T05:26:40;98881.63;;;16.69;53.77
10176;BME280;18221;38.704;0.152;2023-03-22T05:29:09;98875.63;;;16.67;54.03
10176;BME280;18221;38.704;0.152;2023-03-22T05:31:38;98879.44;;;16.73;53.73
10176;BME280;18221;38.704;0.152;2023-03-22T05:34:06;98876.56;;;16.74;53.76
10176;BME280;18221;38.704;0.152;2023-03-22T05:36:35;98872.03;;;16.75;53.84
10176;BME280;18221;38.704;0.152;2023-03-22T05:39:04;98875.91;;;16.72;53.97
10176;BME280;18221;38.704;0.152;2023-03-22T05:41:32;98887.28;;;16.74;53.72
10176;BME280;18221;38.704;0.152;2023-03-22T05:44:02;98878.03;;;16.77;54.17
10176;BME280;18221;38.704;0.152;2023-03-22T05:46:31;98878.88;;;16.77;53.71
10176;BME280;18221;38.704;0.152;2023-03-22T05:48:59;98877.22;;;16.76;54.04
10176;BME280;18221;38.704;0.152;2023-03-22T05:51:27;98873.06;;;16.74;54.12
10176;BME280;18221;38.704;0.152;2023-03-22T05:53:56;98887.00;;;16.69;53.85
10176;BME280;18221;38.704;0.152;2023-03-22T05:56:24;98886.00;;;16.70;54.14
10176;BME280;18221;38.704;0.152;2023-03-22T05:58:52;98895.31;;;16.74;53.95
10176;BME280;18221;38.704;0.152;2023-03-22T06:01:22;98891.28;;;16.78;54.12
10176;BME280;18221;38.704;0.152;2023-03-22T06:03:50;98899.50;;;16.77;53.84
10176;BME280;18221;38.704;0.152;2023-03-22T06:06:19;98892.47;;;16.76;53.69
10176;BME280;18221;38.704;0.152;2023-03-22T06:08:47;98894.81;;;16.79;54.00
10176;BME280;18221;38.704;0.152;2023-03-22T06:11:15;98902.66;;;16.80;54.03
10176;BME280;18221;38.704;0.152;2023-03-22T06:13:44;98904.13;;;16.83;53.96
10176;BME280;18221;38.704;0.152;2023-03-22T06:16:13;98891.22;;;16.86;53.62
10176;BME280;18221;38.704;0.152;2023-03-22T06:18:43;98894.81;;;16.93;53.78
10176;BME280;18221;38.704;0.152;2023-03-22T06:21:11;98902.38;;;16.90;53.62
10176;BME280;18221;38.704;0.152;2023-03-22T06:23:39;98898.50;;;16.92;53.88
10176;BME280;18221;38.704;0.152;2023-03-22T06:26:09;98909.72;;;16.96;53.88
10176;BME280;18221;38.704;0.152;2023-03-22T06:28:38;98918.31;;;16.91;53.89
10176;BME280;18221;38.704;0.152;2023-03-22T06:31:07;98913.88;;;16.98;53.97
10176;BME280;18221;38.704;0.152;2023-03-22T06:33:36;98915.00;;;17.04;54.02
10176;BME280;18221;38.704;0.152;2023-03-22T06:36:07;98918.81;;;17.09;54.06
10176;BME280;18221;38.704;0.152;2023-03-22T06:38:35;98915.75;;;17.12;54.07
10176;BME280;18221;38.704;0.152;2023-03-22T06:41:04;98922.59;;;17.15;54.39
10176;BME280;18221;38.704;0.152;2023-03-22T06:43:32;98928.78;;;17.15;54.10
10176;BME280;18221;38.704;0.152;2023-03-22T06:46:00;98928.53;;;17.25;54.21
10176;BME280;18221;38.704;0.152;2023-03-22T06:48:29;98927.06;;;17.22;54.42
10176;BME280;18221;38.704;0.152;2023-03-22T06:50:57;98931.78;;;17.20;54.46
10176;BME280;18221;38.704;0.152;2023-03-22T06:53:28;98930.84;;;17.28;54.79
10176;BME280;18221;38.704;0.152;2023-03-22T06:55:56;98935.75;;;17.39;54.62
10176;BME280;18221;38.704;0.152;2023-03-22T06:58:24;98932.25;;;17.39;54.78
10176;BME280;18221;38.704;0.152;2023-03-22T07:00:55;98941.88;;;17.48;54.70
10176;BME280;18221;38.704;0.152;2023-03-22T07:03:23;98948.84;;;17.57;54.63
10176;BME280;18221;38.704;0.152;2023-03-22T07:05:51;98951.59;;;17.49;54.75
10176;BME280;18221;38.704;0.152;2023-03-22T07:08:19;98954.38;;;17.55;54.70
10176;BME280;18221;38.704;0.152;2023-03-22T07:10:51;98959.66;;;17.63;54.48
10176;BME280;18221;38.704;0.152;2023-03-22T07:13:19;98964.13;;;17.71;54.18
10176;BME280;18221;38.704;0.152;2023-03-22T07:15:47;98967.00;;;17.69;54.19
10176;BME280;18221;38.704;0.152;2023-03-22T07:18:15;98971.72;;;17.82;53.87
10176;BME280;18221;38.704;0.152;2023-03-22T07:20:45;98975.22;;;17.82;53.91
10176;BME280;18221;38.704;0.152;2023-03-22T07:23:13;98974.28;;;17.90;53.69
10176;BME280;18221;38.704;0.152;2023-03-22T07:25:42;98980.13;;;17.79;53.67
10176;BME280;18221;38.704;0.152;2023-03-22T07:28:12;98979.66;;;17.90;53.81
10176;BME280;18221;38.704;0.152;2023-03-22T07:30:40;98981.16;;;17.78;53.95
10176;BME280;18221;38.704;0.152;2023-03-22T07:33:10;98985.94;;;17.97;54.02
10176;BME280;18221;38.704;0.152;2023-03-22T07:35:38;98989.53;;;18.04;53.71
10176;BME280;18221;38.704;0.152;2023-03-22T07:38:07;98987.97;;;18.10;53.42
10176;BME280;18221;38.704;0.152;2023-03-22T07:40:36;98993.16;;;18.11;53.20
10176;BME280;18221;38.704;0.152;2023-03-22T07:43:04;98996.09;;;18.31;53.13
10176;BME280;18221;38.704;0.152;2023-03-22T07:45:34;98994.22;;;18.31;53.02
10176;BME280;18221;38.704;0.152;2023-03-22T07:48:02;98992.66;;;18.37;52.87
10176;BME280;18221;38.704;0.152;2023-03-22T07:50:30;98987.06;;;18.38;52.72
10176;BME280;18221;38.704;0.152;2023-03-22T07:52:58;98984.22;;;18.25;52.56
10176;BME280;18221;38.704;0.152;2023-03-22T07:55:27;98990.81;;;18.37;52.57
10176;BME280;18221;38.704;0.152;2023-03-22T07:57:55;98988.81;;;18.61;52.16
10176;BME280;18221;38.704;0.152;2023-03-22T08:00:23;98983.47;;;18.67;51.82
10176;BME280;18221;38.704;0.152;2023-03-22T08:02:53;98982.47;;;18.68;51.58
10176;BME280;18221;38.704;0.152;2023-03-22T08:05:22;98983.31;;;18.69;51.15
10176;BME280;18221;38.704;0.152;2023-03-22T08:07:50;98987.63;;;18.70;51.06
10176;BME280;18221;38.704;0.152;2023-03-22T08:10:19;98994.34;;;18.59;50.84
10176;BME280;18221;38.704;0.152;2023-03-22T08:12:48;98993.28;;;18.54;50.90
10176;BME280;18221;38.704;0.152;2023-03-22T08:15:16;98996.44;;;18.42;51.18
10176;BME280;18221;38.704;0.152;2023-03-22T08:17:44;98992.44;;;18.53;51.06
10176;BME280;18221;38.704;0.152;2023-03-22T08:20:16;98994.03;;;18.47;51.25
10176;BME280;18221;38.704;0.152;2023-03-22T08:22:45;99000.41;;;18.46;51.44
10176;BME280;18221;38.704;0.152;2023-03-22T08:25:13;98999.03;;;18.51;51.43
10176;BME280;18221;38.704;0.152;2023-03-22T08:27:41;99002.09;;;18.47;51.26
10176;BME280;18221;38.704;0.152;2023-03-22T08:30:18;99001.28;;;18.32;51.55
10176;BME280;18221;38.704;0.152;2023-03-22T08:32:49;99004.94;;;18.46;51.41
10176;BME280;18221;38.704;0.152;2023-03-22T08:35:20;99007.19;;;18.42;51.42
10176;BME280;18221;38.704;0.152;2023-03-22T08:37:52;99008.84;;;18.43;51.30
10176;BME280;18221;38.704;0.152;2023-03-22T08:40:20;99005.50;;;18.41;51.58
10176;BME280;18221;38.704;0.152;2023-03-22T08:42:49;99011.53;;;18.43;51.28
10176;BME280;18221;38.704;0.152;2023-03-22T08:45:18;99012.75;;;18.56;51.25
10176;BME280;18221;38.704;0.152;2023-03-22T08:47:46;99012.53;;;18.57;51.03
10176;BME280;18221;38.704;0.152;2023-03-22T08:50:15;99011.16;;;18.61;50.98
10176;BME280;18221;38.704;0.152;2023-03-22T08:52:44;99008.38;;;18.55;51.11
10176;BME280;18221;38.704;0.152;2023-03-22T08:55:13;99014.03;;;18.60;51.08
10176;BME280;18221;38.704;0.152;2023-03-22T08:57:43;99012.53;;;18.57;50.82
10176;BME280;18221;38.704;0.152;2023-03-22T09:00:17;99017.50;;;18.75;50.75
10176;BME280;18221;38.704;0.152;2023-03-22T09:02:46;99017.22;;;18.70;50.55
10176;BME280;18221;38.704;0.152;2023-03-22T09:05:16;99016.59;;;18.32;51.22
10176;BME280;18221;38.704;0.152;2023-03-22T09:07:45;99017.31;;;18.40;51.50
10176;BME280;18221;38.704;0.152;2023-03-22T09:10:13;99025.94;;;18.51;51.20
10176;BME280;18221;38.704;0.152;2023-03-22T09:12:42;99027.84;;;18.57;51.15
10176;BME280;18221;38.704;0.152;2023-03-22T09:15:10;99029.78;;;18.63;51.03
10176;BME280;18221;38.704;0.152;2023-03-22T09:17:39;99030.03;;;18.68;50.94
10176;BME280;18221;38.704;0.152;2023-03-22T09:20:08;99027.97;;;18.84;50.49
10176;BME280;18221;38.704;0.152;2023-03-22T09:22:36;99031.91;;;18.67;50.41
10176;BME280;18221;38.704;0.152;2023-03-22T09:25:08;99036.25;;;18.68;50.59
10176;BME280;18221;38.704;0.152;2023-03-22T09:27:36;99035.16;;;18.63;50.70
10176;BME280;18221;38.704;0.152;2023-03-22T09:30:06;99037.94;;;18.69;50.73
10176;BME280;18221;38.704;0.152;2023-03-22T09:32:34;99037.94;;;18.69;50.62
10176;BME280;18221;38.704;0.152;2023-03-22T09:35:03;99042.69;;;18.88;50.50
10176;BME280;18221;38.704;0.152;2023-03-22T09:37:32;99049.28;;;18.86;50.45
10176;BME280;18221;38.704;0.152;2023-03-22T09:40:01;99045.81;;;18.92;50.21
10176;BME280;18221;38.704;0.152;2023-03-22T09:42:38;99046.97;;;18.83;50.18
10176;BME280;18221;38.704;0.152;2023-03-22T09:45:15;99047.94;;;18.96;50.45
10176;BME280;18221;38.704;0.152;2023-03-22T09:47:49;99045.13;;;19.04;50.05
10176;BME280;18221;38.704;0.152;2023-03-22T09:50:23;99042.03;;;19.07;50.25
10176;BME280;18221;38.704;0.152;2023-03-22T09:52:53;99035.69;;;19.15;50.29
10176;BME280;18221;38.704;0.152;2023-03-22T09:55:31;99039.91;;;19.24;49.73
10176;BME280;18221;38.704;0.152;2023-03-22T09:58:20;99041.56;;;19.25;49.80
10176;BME280;18221;38.704;0.152;2023-03-22T10:00:57;99037.53;;;19.15;49.93
10176;BME280;18221;38.704;0.152;2023-03-22T10:03:55;99039.03;;;19.17;50.22
10176;BME280;18221;38.704;0.152;2023-03-22T10:06:27;99040.81;;;19.10;50.25
10176;BME280;18221;38.704;0.152;2023-03-22T10:09:07;99030.19;;;19.23;50.18
10176;BME280;18221;38.704;0.152;2023-03-22T10:11:45;99030.75;;;19.19;50.54
10176;BME280;18221;38.704;0.152;2023-03-22T10:14:31;99031.97;;;19.37;50.25
10176;BME280;18221;38.704;0.152;2023-03-22T10:17:09;99027.25;;;19.39;50.01
10176;BME280;18221;38.704;0.152;2023-03-22T10:19:51;99032.22;;;19.42;50.40
10176;BME280;18221;38.704;0.152;2023-03-22T10:22:25;99032.75;;;19.59;50.07
10176;BME280;18221;38.704;0.152;2023-03-22T10:24:57;99034.63;;;19.58;49.95
10176;BME280;18221;38.704;0.152;2023-03-22T10:27:29;99032.97;;;19.57;50.21
10176;BME280;18221;38.704;0.152;2023-03-22T10:30:07;99030.59;;;19.76;50.03
10176;BME280;18221;38.704;0.152;2023-03-22T10:32:41;99021.28;;;19.78;49.51
10176;BME280;18221;38.704;0.152;2023-03-22T10:35:14;99028.84;;;19.61;49.62
10176;BME280;18221;38.704;0.152;2023-03-22T10:37:47;99026.16;;;19.61;50.61
10176;BME280;18221;38.704;0.152;2023-03-22T10:40:22;99032.63;;;19.67;50.29
10176;BME280;18221;38.704;0.152;2023-03-22T10:42:54;99024.31;;;19.68;49.97
10176;BME280;18221;38.704;0.152;2023-03-22T10:45:26;99029.88;;;19.60;50.09
10176;BME280;18221;38.704;0.152;2023-03-22T10:47:59;99026.34;;;19.60;50.04
10176;BME280;18221;38.704;0.152;2023-03-22T10:50:33;99023.41;;;19.55;50.00
10176;BME280;18221;38.704;0.152;2023-03-22T10:53:07;99021.94;;;19.52;50.16
10176;BME280;18221;38.704;0.152;2023-03-22T10:55:41;99013.78;;;19.73;49.87
10176;BME280;18221;38.704;0.152;2023-03-22T10:58:13;99001.44;;;19.86;49.47
10176;BME280;18221;38.704;0.152;2023-03-22T11:00:49;99013.53;;;19.96;49.56
10176;BME280;18221;38.704;0.152;2023-03-22T11:03:29;99002.34;;;19.99;49.16
10176;BME280;18221;38.704;0.152;2023-03-22T11:06:05;98998.59;;;19.94;48.76
10176;BME280;18221;38.704;0.152;2023-03-22T11:08:45;98991.59;;;19.71;48.64
10176;BME280;18221;38.704;0.152;2023-03-22T11:11:22;98994.59;;;19.83;49.12
10176;BME280;18221;38.704;0.152;2023-03-22T11:13:57;99004.97;;;19.86;48.29
10176;BME280;18221;38.704;0.152;2023-03-22T11:16:30;98998.25;;;20.10;48.33
10176;BME280;18221;38.704;0.152;2023-03-22T11:19:01;98998.88;;;20.12;48.12
10176;BME280;18221;38.704;0.152;2023-03-22T11:21:32;98994.09;;;20.07;48.18
10176;BME280;18221;38.704;0.152;2023-03-22T11:24:04;98993.09;;;20.21;48.18
10176;BME280;18221;38.704;0.152;2023-03-22T11:26:35;98992.03;;;20.16;47.71
10176;BME280;18221;38.704;0.152;2023-03-22T11:29:15;98991.00;;;20.17;47.63
10176;BME280;18221;38.704;0.152;2023-03-22T11:31:55;98980.41;;;20.15;47.82
10176;BME280;18221;38.704;0.152;2023-03-22T11:34:27;98983.25;;;20.01;47.91
10176;BME280;18221;38.704;0.152;2023-03-22T11:36:59;98984.56;;;20.11;48.27
10176;BME280;18221;38.704;0.152;2023-03-22T11:39:29;98983.94;;;20.09;47.98
10176;BME280;18221;38.704;0.152;2023-03-22T11:41:58;98979.47;;;20.29;47.58
10176;BME280;18221;38.704;0.152;2023-03-22T11:44:34;98980.34;;;20.43;47.29
10176;BME280;18221;38.704;0.152;2023-03-22T11:47:08;98977.88;;;20.48;47.24
10176;BME280;18221;38.704;0.152;2023-03-22T11:49:45;98977.06;;;20.54;47.04
10176;BME280;18221;38.704;0.152;2023-03-22T11:52:18;98977.91;;;20.61;46.53
10176;BME280;18221;38.704;0.152;2023-03-22T11:54:49;98984.53;;;20.65;46.34
10176;BME280;18221;38.704;0.152;2023-03-22T11:57:23;98988.31;;;20.77;46.60
10176;BME280;18221;38.704;0.152;2023-03-22T11:59:58;98983.53;;;20.86;45.68
10176;BME280;18221;38.704;0.152;2023-03-22T12:02:40;98982.75;;;20.99;46.20
10176;BME280;18221;38.704;0.152;2023-03-22T12:05:18;98985.22;;;20.93;45.48
10176;BME280;18221;38.704;0.152;2023-03-22T12:07:54;98979.38;;;20.83;45.52
10176;BME280;18221;38.704;0.152;2023-03-22T12:10:30;98978.56;;;20.76;45.80
10176;BME280;18221;38.704;0.152;2023-03-22T12:13:04;98970.22;;;20.58;45.27
10176;BME280;18221;38.704;0.152;2023-03-22T12:15:37;98966.09;;;20.75;45.67
10176;BME280;18221;38.704;0.152;2023-03-22T12:18:15;98972.75;;;20.79;45.85
10176;BME280;18221;38.704;0.152;2023-03-22T12:20:52;98964.44;;;20.94;46.44
10176;BME280;18221;38.704;0.152;2023-03-22T12:23:23;98965.31;;;21.01;46.68
10176;BME280;18221;38.704;0.152;2023-03-22T12:25:58;98967.34;;;20.99;46.07
10176;BME280;18221;38.704;0.152;2023-03-22T12:28:33;98968.00;;;20.88;45.61
10176;BME280;18221;38.704;0.152;2023-03-22T12:31:12;98970.72;;;21.08;45.66
10176;BME280;18221;38.704;0.152;2023-03-22T12:33:47;98964.84;;;20.91;46.48
10176;BME280;18221;38.704;0.152;2023-03-22T13:19:02;98910.91;;;21.24;46.34
10176;BME280;18221;38.704;0.152;2023-03-22T13:21:32;98920.41;;;21.46;46.17
10176;BME280;18221;38.704;0.152;2023-03-22T13:24:20;98894.06;;;21.28;45.82
10176;BME280;18221;38.704;0.152;2023-03-22T13:26:51;98910.03;;;21.36;46.24
10176;BME280;18221;38.704;0.152;2023-03-22T13:29:22;98895.28;;;21.39;45.91
10176;BME280;18221;38.704;0.152;2023-03-22T13:31:56;98894.63;;;21.43;46.12
10176;BME280;18221;38.704;0.152;2023-03-22T13:34:37;98894.19;;;21.66;46.30
10176;BME280;18221;38.704;0.152;2023-03-22T13:37:15;98893.34;;;21.59;46.33
10176;BME280;18221;38.704;0.152;2023-03-22T13:39:51;98888.34;;;21.63;45.84
10176;BME280;18221;38.704;0.152;2023-03-22T13:42:21;98878.81;;;21.53;45.93
10176;BME280;18221;38.704;0.152;2023-03-22T13:44:56;98878.22;;;21.45;45.92
10176;BME280;18221;38.704;0.152;2023-03-22T13:47:35;98890.22;;;21.62;46.00
10176;BME280;18221;38.704;0.152;2023-03-22T13:50:13;98877.34;;;21.58;45.80
10176;BME280;18221;38.704;0.152;2023-03-22T13:52:53;98877.16;;;21.52;46.31
10176;BME280;18221;38.704;0.152;2023-03-22T13:55:41;98874.03;;;21.56;46.15
10176;BME280;18221;38.704;0.152;2023-03-22T13:58:49;98866.63;;;21.82;45.58
10176;BME280;18221;38.704;0.152;2023-03-22T14:01:30;98869.28;;;21.44;46.05
10176;BME280;18221;38.704;0.152;2023-03-22T14:04:08;98870.13;;;21.45;46.82
10176;BME280;18221;38.704;0.152;2023-03-22T14:06:51;98872.97;;;21.57;46.46
10176;BME280;18221;38.704;0.152;2023-03-22T14:09:28;98861.09;;;21.64;46.45
10176;BME280;18221;38.704;0.152;2023-03-22T14:12:07;98860.69;;;21.67;46.40
10176;BME280;18221;38.704;0.152;2023-03-22T14:14:43;98865.44;;;21.78;46.16
10176;BME280;18221;38.704;0.152;2023-03-22T14:17:28;98864.78;;;21.89;46.25